sensor_id;sensor_type;location;lat;lon;timestamp;pressure;altitude;pressure_sealevel;temperature;humidity
60725;BME280;59881;36.722;-4.462;2023-03-21T00:00:46;101327.03;;;11.65;76.12
60725;BME280;59881;36.722;-4.462;2023-03-21T00:03:13;101319.38;;;11.60;76.03
60725;BME280;59881;36.722;-4.462;2023-03-21T00:05:41;101285.22;;;11.14;75.58
60725;BME280;59881;36.722;-4.462;2023-03-21T00:08:06;101109.38;;;10.27;75.62
60725;BME280;59881;36.722;-4.462;2023-03-21T00:10:32;101279.78;;;11.32;75.39
60725;BME280;59881;36.722;-4.462;2023-03-21T00:12:57;101313.16;;;11.47;74.92
60725;BME280;59881;36.722;-4.462;2023-03-21T00:15:24;101271.66;;;11.21;74.65
60725;BME280;59881;36.722;-4.462;2023-03-21T00:17:57;101280.22;;;11.24;74.69
60725;BME280;59881;36.722;-4.462;2023-03-21T00:20:30;101300.25;;;11.43;73.90
60725;BME280;59881;36.722;-4.462;2023-03-21T00:22:55;101302.88;;;11.43;73.75
60725;BME280;59881;36.722;-4.462;2023-03-21T00:25:21;101396.16;;;11.42;73.34
60725;BME280;59881;36.722;-4.462;2023-03-21T00:27:46;101267.44;;;11.18;73.20
60725;BME280;59881;36.722;-4.462;2023-03-21T00:30:12;101229.44;;;10.92;72.66
60725;BME280;59881;36.722;-4.462;2023-03-21T00:32:38;101285.41;;;11.26;72.82
60725;BME280;59881;36.722;-4.462;2023-03-21T00:35:03;101342.06;;;11.04;72.60
60725;BME280;59881;36.722;-4.462;2023-03-21T00:37:29;101194.00;;;10.67;72.33
60725;BME280;59881;36.722;-4.462;2023-03-21T00:39:54;101280.44;;;11.21;72.77
60725;BME280;59881;36.722;-4.462;2023-03-21T00:42:20;101274.88;;;11.26;72.38
60725;BME280;59881;36.722;-4.462;2023-03-21T00:44:45;101277.50;;;11.26;72.26
60725;BME280;59881;36.722;-4.462;2023-03-21T00:47:12;101273.06;;;11.26;71.98
60725;BME280;59881;36.722;-4.462;2023-03-21T00:49:38;101310.81;;;11.12;71.71
60725;BME280;59881;36.722;-4.462;2023-03-21T00:52:06;101250.44;;;11.08;71.65
60725;BME280;59881;36.722;-4.462;2023-03-21T00:54:33;101273.63;;;11.17;71.71
60725;BME280;59881;36.722;-4.462;2023-03-21T00:56:58;101238.19;;;10.92;71.83
60725;BME280;59881;36.722;-4.462;2023-03-21T00:59:25;101354.13;;;11.08;71.69
60725;BME280;59881;36.722;-4.462;2023-03-21T01:01:51;101268.06;;;11.07;71.75
60725;BME280;59881;36.722;-4.462;2023-03-21T01:04:18;101237.63;;;10.87;72.01
60725;BME280;59881;36.722;-4.462;2023-03-21T01:06:46;101359.66;;;11.04;72.08
60725;BME280;59881;36.722;-4.462;2023-03-21T01:09:17;101263.16;;;11.01;71.93
60725;BME280;59881;36.722;-4.462;2023-03-21T01:11:44;101242.78;;;10.89;72.04
60725;BME280;59881;36.722;-4.462;2023-03-21T01:14:11;101250.72;;;11.03;72.16
60725;BME280;59881;36.722;-4.462;2023-03-21T01:16:37;101253.38;;;11.03;71.78
60725;BME280;59881;36.722;-4.462;2023-03-21T01:19:05;100763.16;;;8.12;71.33
60725;BME280;59881;36.722;-4.462;2023-03-21T01:21:31;101205.09;;;10.87;71.14
60725;BME280;59881;36.722;-4.462;2023-03-21T01:23:56;101245.94;;;11.10;71.50
60725;BME280;59881;36.722;-4.462;2023-03-21T01:26:22;100943.44;;;8.76;71.11
60725;BME280;59881;36.722;-4.462;2023-03-21T01:28:48;101196.91;;;10.77;71.01
60725;BME280;59881;36.722;-4.462;2023-03-21T01:31:15;101247.59;;;10.96;71.01
60725;BME280;59881;36.722;-4.462;2023-03-21T01:33:41;101221.00;;;10.71;70.90
60725;BME280;59881;36.722;-4.462;2023-03-21T01:36:08;101169.16;;;10.41;71.37
60725;BME280;59881;36.722;-4.462;2023-03-21T01:38:38;101159.16;;;10.32;71.72
60725;BME280;59881;36.722;-4.462;2023-03-21T01:41:03;101237.28;;;10.77;71.66
60725;BME280;59881;36.722;-4.462;2023-03-21T01:43:32;101251.34;;;10.62;71.52
60725;BME280;59881;36.722;-4.462;2023-03-21T01:48:30;101313.34;;;10.69;71.54
60725;BME280;59881;36.722;-4.462;2023-03-21T01:50:56;101223.81;;;10.68;72.07
60725;BME280;59881;36.722;-4.462;2023-03-21T01:53:25;101214.19;;;10.67;71.93
60725;BME280;59881;36.722;-4.462;2023-03-21T01:56:05;101214.38;;;10.64;71.46
60725;BME280;59881;36.722;-4.462;2023-03-21T01:58:33;101205.63;;;10.63;71.58
60725;BME280;59881;36.722;-4.462;2023-03-21T02:01:00;101208.34;;;10.62;71.65
60725;BME280;59881;36.722;-4.462;2023-03-21T02:03:28;101201.28;;;10.62;71.90
60725;BME280;59881;36.722;-4.462;2023-03-21T02:06:08;101173.31;;;10.45;71.84
60725;BME280;59881;36.722;-4.462;2023-03-21T02:08:35;101195.25;;;10.60;71.38
60725;BME280;59881;36.722;-4.462;2023-03-21T02:11:01;101196.28;;;10.57;71.61
60725;BME280;59881;36.722;-4.462;2023-03-21T02:13:27;101222.59;;;9.64;71.46
60725;BME280;59881;36.722;-4.462;2023-03-21T02:16:17;101186.78;;;10.55;71.35
60725;BME280;59881;36.722;-4.462;2023-03-21T02:22:06;101182.56;;;10.52;71.73
60725;BME280;59881;36.722;-4.462;2023-03-21T02:27:31;101128.66;;;10.28;71.26
60725;BME280;59881;36.722;-4.462;2023-03-21T02:32:45;101172.09;;;10.51;71.08
60725;BME280;59881;36.722;-4.462;2023-03-21T02:40:55;101155.53;;;10.49;70.81
60725;BME280;59881;36.722;-4.462;2023-03-21T02:46:21;101094.47;;;10.12;70.67
60725;BME280;59881;36.722;-4.462;2023-03-21T02:49:16;101147.97;;;10.43;70.38
60725;BME280;59881;36.722;-4.462;2023-03-21T02:51:47;100691.41;;;7.65;70.25
60725;BME280;59881;36.722;-4.462;2023-03-21T02:54:17;101052.13;;;9.85;70.52
60725;BME280;59881;36.722;-4.462;2023-03-21T02:56:46;101149.28;;;10.35;70.82
60725;BME280;59881;36.722;-4.462;2023-03-21T02:59:14;101097.00;;;10.13;70.78
60725;BME280;59881;36.722;-4.462;2023-03-21T03:01:41;100763.94;;;8.14;70.55
60725;BME280;59881;36.722;-4.462;2023-03-21T03:04:23;101135.97;;;10.39;70.67
60725;BME280;59881;36.722;-4.462;2023-03-21T03:09:35;101127.94;;;10.40;70.87
60725;BME280;59881;36.722;-4.462;2023-03-21T03:12:31;101131.59;;;10.38;70.37
60725;BME280;59881;36.722;-4.462;2023-03-21T03:17:50;101063.94;;;9.93;70.65
60725;BME280;59881;36.722;-4.462;2023-03-21T03:23:18;101121.44;;;10.31;70.01
60725;BME280;59881;36.722;-4.462;2023-03-21T03:28:17;100325.53;;;5.54;68.81
60725;BME280;59881;36.722;-4.462;2023-03-21T03:30:45;101113.00;;;10.41;68.52
60725;BME280;59881;36.722;-4.462;2023-03-21T03:33:12;101114.50;;;10.45;68.43
60725;BME280;59881;36.722;-4.462;2023-03-21T03:35:42;101173.97;;;10.49;67.82
60725;BME280;59881;36.722;-4.462;2023-03-21T03:38:09;101107.19;;;10.50;67.07
60725;BME280;59881;36.722;-4.462;2023-03-21T03:40:42;101059.97;;;10.17;66.73
60725;BME280;59881;36.722;-4.462;2023-03-21T03:43:36;101056.34;;;10.33;66.26
60725;BME280;59881;36.722;-4.462;2023-03-21T03:46:16;101086.88;;;10.52;65.52
60725;BME280;59881;36.722;-4.462;2023-03-21T03:48:49;101133.41;;;10.51;65.15
60725;BME280;59881;36.722;-4.462;2023-03-21T03:54:11;101073.69;;;10.52;64.73
60725;BME280;59881;36.722;-4.462;2023-03-21T03:56:39;101068.53;;;10.50;64.72
60725;BME280;59881;36.722;-4.462;2023-03-21T03:59:05;100992.44;;;10.01;64.36
60725;BME280;59881;36.722;-4.462;2023-03-21T04:01:33;100615.94;;;7.70;64.00
60725;BME280;59881;36.722;-4.462;2023-03-21T04:03:59;101062.97;;;10.41;63.73
60725;BME280;59881;36.722;-4.462;2023-03-21T04:06:26;100486.59;;;6.92;63.68
60725;BME280;59881;36.722;-4.462;2023-03-21T04:08:54;101056.81;;;10.40;63.91
60725;BME280;59881;36.722;-4.462;2023-03-21T04:11:21;101052.50;;;10.39;63.47
60725;BME280;59881;36.722;-4.462;2023-03-21T04:13:46;100573.41;;;7.49;63.03
60725;BME280;59881;36.722;-4.462;2023-03-21T04:16:12;100677.00;;;8.20;62.97
60725;BME280;59881;36.722;-4.462;2023-03-21T04:18:39;101023.53;;;10.09;62.88
60725;BME280;59881;36.722;-4.462;2023-03-21T04:21:10;101016.88;;;10.18;62.80
60725;BME280;59881;36.722;-4.462;2023-03-21T04:23:37;101025.19;;;10.26;62.08
60725;BME280;59881;36.722;-4.462;2023-03-21T04:26:03;101031.50;;;10.23;62.04
60725;BME280;59881;36.722;-4.462;2023-03-21T04:28:30;100853.22;;;8.77;61.95
60725;BME280;59881;36.722;-4.462;2023-03-21T04:30:55;100634.47;;;7.83;61.78
60725;BME280;59881;36.722;-4.462;2023-03-21T04:33:22;100567.41;;;7.31;61.98
60725;BME280;59881;36.722;-4.462;2023-03-21T04:35:51;101058.47;;;10.27;61.77
60725;BME280;59881;36.722;-4.462;2023-03-21T04:38:21;100766.44;;;7.83;61.41
60725;BME280;59881;36.722;-4.462;2023-03-21T04:40:47;101027.22;;;10.06;61.82
60725;BME280;59881;36.722;-4.462;2023-03-21T04:43:13;101000.56;;;9.36;61.76
60725;BME280;59881;36.722;-4.462;2023-03-21T04:45:39;101028.06;;;10.07;61.18
60725;BME280;59881;36.722;-4.462;2023-03-21T04:48:05;100970.97;;;9.63;60.99
60725;BME280;59881;36.722;-4.462;2023-03-21T04:50:30;101061.16;;;10.11;60.89
60725;BME280;59881;36.722;-4.462;2023-03-21T04:52:56;101070.38;;;10.34;60.90
60725;BME280;59881;36.722;-4.462;2023-03-21T04:55:22;100632.88;;;7.64;60.59
60725;BME280;59881;36.722;-4.462;2023-03-21T04:57:50;101073.94;;;10.33;59.99
60725;BME280;59881;36.722;-4.462;2023-03-21T05:00:16;101074.69;;;10.35;59.85
60725;BME280;59881;36.722;-4.462;2023-03-21T05:02:41;100705.19;;;8.00;59.37
60725;BME280;59881;36.722;-4.462;2023-03-21T05:05:07;100881.16;;;9.24;59.06
60725;BME280;59881;36.722;-4.462;2023-03-21T05:07:37;100976.38;;;9.76;59.03
60725;BME280;59881;36.722;-4.462;2023-03-21T05:10:03;101066.59;;;10.38;58.54
60725;BME280;59881;36.722;-4.462;2023-03-21T05:12:29;101078.09;;;10.37;58.62
60725;BME280;59881;36.722;-4.462;2023-03-21T05:14:54;101071.31;;;10.33;58.52
60725;BME280;59881;36.722;-4.462;2023-03-21T05:17:20;101067.06;;;10.30;58.32
60725;BME280;59881;36.722;-4.462;2023-03-21T05:19:49;101043.00;;;10.06;58.03
60725;BME280;59881;36.722;-4.462;2023-03-21T05:22:18;101071.81;;;10.24;58.12
60725;BME280;59881;36.722;-4.462;2023-03-21T05:24:44;101070.22;;;10.21;58.20
60725;BME280;59881;36.722;-4.462;2023-03-21T05:27:18;101072.09;;;10.19;58.33
60725;BME280;59881;36.722;-4.462;2023-03-21T05:30:08;101013.69;;;9.82;58.34
60725;BME280;59881;36.722;-4.462;2023-03-21T05:32:34;100689.38;;;7.86;57.94
60725;BME280;59881;36.722;-4.462;2023-03-21T05:35:00;101045.50;;;9.93;58.04
60725;BME280;59881;36.722;-4.462;2023-03-21T05:37:26;101083.19;;;10.10;58.23
60725;BME280;59881;36.722;-4.462;2023-03-21T05:39:52;100670.91;;;7.56;58.07
60725;BME280;59881;36.722;-4.462;2023-03-21T05:42:18;101083.06;;;10.11;58.22
60725;BME280;59881;36.722;-4.462;2023-03-21T05:44:44;101067.25;;;9.97;58.12
60725;BME280;59881;36.722;-4.462;2023-03-21T05:47:11;101063.94;;;9.93;58.52
60725;BME280;59881;36.722;-4.462;2023-03-21T05:49:37;100677.44;;;7.49;58.12
60725;BME280;59881;36.722;-4.462;2023-03-21T05:52:03;100980.97;;;9.42;57.90
60725;BME280;59881;36.722;-4.462;2023-03-21T05:54:29;100824.69;;;8.55;57.55
60725;BME280;59881;36.722;-4.462;2023-03-21T05:56:54;101049.09;;;9.92;57.20
60725;BME280;59881;36.722;-4.462;2023-03-21T05:59:20;100999.41;;;9.56;57.17
60725;BME280;59881;36.722;-4.462;2023-03-21T06:01:45;100750.03;;;8.12;56.84
60725;BME280;59881;36.722;-4.462;2023-03-21T06:04:11;100595.28;;;7.16;56.74
60725;BME280;59881;36.722;-4.462;2023-03-21T06:06:36;101062.81;;;9.98;56.79
60725;BME280;59881;36.722;-4.462;2023-03-21T06:09:02;101104.72;;;10.17;56.46
60725;BME280;59881;36.722;-4.462;2023-03-21T06:11:30;101061.22;;;9.95;56.64
60725;BME280;59881;36.722;-4.462;2023-03-21T06:13:56;101101.34;;;10.14;56.22
60725;BME280;59881;36.722;-4.462;2023-03-21T06:16:21;101044.72;;;9.77;56.19
60725;BME280;59881;36.722;-4.462;2023-03-21T06:18:47;100329.22;;;5.33;56.13
60725;BME280;59881;36.722;-4.462;2023-03-21T06:21:13;101000.22;;;9.42;56.60
60725;BME280;59881;36.722;-4.462;2023-03-21T06:23:38;101088.09;;;10.00;56.75
60725;BME280;59881;36.722;-4.462;2023-03-21T06:26:04;101069.06;;;10.11;57.18
60725;BME280;59881;36.722;-4.462;2023-03-21T06:28:30;101116.69;;;10.67;56.79
60725;BME280;59881;36.722;-4.462;2023-03-21T06:30:55;101092.44;;;10.90;57.29
60725;BME280;59881;36.722;-4.462;2023-03-21T06:33:21;101093.88;;;11.37;56.52
60725;BME280;59881;36.722;-4.462;2023-03-21T06:35:54;101146.50;;;11.68;56.15
60725;BME280;59881;36.722;-4.462;2023-03-21T06:38:21;101139.22;;;12.66;54.84
60725;BME280;59881;36.722;-4.462;2023-03-21T06:40:47;101105.97;;;13.13;53.19
60725;BME280;59881;36.722;-4.462;2023-03-21T06:43:13;101112.91;;;13.52;52.35
60725;BME280;59881;36.722;-4.462;2023-03-21T06:45:40;100665.13;;;11.70;51.11
60725;BME280;59881;36.722;-4.462;2023-03-21T06:48:05;101077.97;;;15.77;48.29
60725;BME280;59881;36.722;-4.462;2023-03-21T06:50:31;101078.72;;;17.34;44.41
60725;BME280;59881;36.722;-4.462;2023-03-21T06:52:57;101103.53;;;18.91;41.05
60725;BME280;59881;36.722;-4.462;2023-03-21T06:55:24;101107.72;;;20.12;38.27
60725;BME280;59881;36.722;-4.462;2023-03-21T06:57:55;101108.19;;;21.04;35.91
60725;BME280;59881;36.722;-4.462;2023-03-21T07:00:22;101024.06;;;21.39;34.34
60725;BME280;59881;36.722;-4.462;2023-03-21T07:02:48;101119.84;;;21.96;33.72
60725;BME280;59881;36.722;-4.462;2023-03-21T07:05:15;100804.56;;;19.87;33.55
60725;BME280;59881;36.722;-4.462;2023-03-21T07:07:41;101084.75;;;21.48;33.07
60725;BME280;59881;36.722;-4.462;2023-03-21T07:10:07;101075.41;;;22.18;32.49
60725;BME280;59881;36.722;-4.462;2023-03-21T07:12:33;101123.97;;;22.97;30.97
60725;BME280;59881;36.722;-4.462;2023-03-21T07:15:03;101101.09;;;22.53;30.85
60725;BME280;59881;36.722;-4.462;2023-03-21T07:17:30;101123.00;;;23.38;30.50
60725;BME280;59881;36.722;-4.462;2023-03-21T07:19:55;100857.84;;;22.99;28.82
60725;BME280;59881;36.722;-4.462;2023-03-21T07:22:21;101035.75;;;25.07;27.31
60725;BME280;59881;36.722;-4.462;2023-03-21T07:24:46;101129.41;;;24.60;27.38
60725;BME280;59881;36.722;-4.462;2023-03-21T07:27:13;101099.91;;;24.44;27.62
60725;BME280;59881;36.722;-4.462;2023-03-21T07:29:39;101132.81;;;24.31;27.40
60725;BME280;59881;36.722;-4.462;2023-03-21T07:32:05;101118.16;;;23.95;28.11
60725;BME280;59881;36.722;-4.462;2023-03-21T07:34:31;101144.69;;;24.97;26.75
60725;BME280;59881;36.722;-4.462;2023-03-21T07:36:58;101142.75;;;26.37;26.30
60725;BME280;59881;36.722;-4.462;2023-03-21T07:39:23;101082.66;;;26.56;24.76
60725;BME280;59881;36.722;-4.462;2023-03-21T07:41:50;101125.34;;;25.75;25.69
60725;BME280;59881;36.722;-4.462;2023-03-21T07:44:16;101170.34;;;26.82;25.43
60725;BME280;59881;36.722;-4.462;2023-03-21T07:46:41;101022.66;;;26.68;24.33
60725;BME280;59881;36.722;-4.462;2023-03-21T07:49:07;101218.09;;;25.89;26.06
60725;BME280;59881;36.722;-4.462;2023-03-21T07:51:33;101134.00;;;23.59;29.36
60725;BME280;59881;36.722;-4.462;2023-03-21T07:54:00;101185.41;;;23.25;29.37
60725;BME280;59881;36.722;-4.462;2023-03-21T07:56:27;101053.63;;;23.33;28.79
60725;BME280;59881;36.722;-4.462;2023-03-21T07:58:53;101017.69;;;25.22;26.80
60725;BME280;59881;36.722;-4.462;2023-03-21T08:01:18;100748.47;;;24.33;25.51
60725;BME280;59881;36.722;-4.462;2023-03-21T08:03:44;100696.94;;;24.14;25.38
60725;BME280;59881;36.722;-4.462;2023-03-21T08:06:10;100887.78;;;24.97;25.45
60725;BME280;59881;36.722;-4.462;2023-03-21T08:08:35;100928.75;;;25.50;25.61
60725;BME280;59881;36.722;-4.462;2023-03-21T08:11:03;100878.44;;;26.75;24.29
60725;BME280;59881;36.722;-4.462;2023-03-21T08:13:28;101249.63;;;31.01;22.08
60725;BME280;59881;36.722;-4.462;2023-03-21T08:15:54;100947.78;;;30.57;21.08
60725;BME280;59881;36.722;-4.462;2023-03-21T08:18:20;101129.22;;;30.18;21.62
60725;BME280;59881;36.722;-4.462;2023-03-21T08:20:50;101219.09;;;28.93;23.02
60725;BME280;59881;36.722;-4.462;2023-03-21T08:23:16;101158.66;;;27.51;24.09
60725;BME280;59881;36.722;-4.462;2023-03-21T08:25:42;100792.63;;;24.96;24.80
60725;BME280;59881;36.722;-4.462;2023-03-21T08:28:07;101081.69;;;27.06;24.82
60725;BME280;59881;36.722;-4.462;2023-03-21T08:30:33;101029.03;;;28.36;23.79
60725;BME280;59881;36.722;-4.462;2023-03-21T08:32:59;101137.84;;;31.69;20.98
60725;BME280;59881;36.722;-4.462;2023-03-21T08:35:25;100909.41;;;31.96;19.11
60725;BME280;59881;36.722;-4.462;2023-03-21T08:37:51;101041.31;;;34.15;17.31
60725;BME280;59881;36.722;-4.462;2023-03-21T08:40:18;101183.81;;;35.30;16.09
60725;BME280;59881;36.722;-4.462;2023-03-21T08:42:45;101219.41;;;36.61;15.37
60725;BME280;59881;36.722;-4.462;2023-03-21T08:45:13;100896.00;;;34.06;15.60
60725;BME280;59881;36.722;-4.462;2023-03-21T08:47:39;101259.94;;;35.94;15.37
60725;BME280;59881;36.722;-4.462;2023-03-21T08:50:06;101223.50;;;35.50;15.63
60725;BME280;59881;36.722;-4.462;2023-03-21T08:52:33;101208.09;;;33.34;17.02
60725;BME280;59881;36.722;-4.462;2023-03-21T08:54:58;100842.03;;;30.67;17.73
60725;BME280;59881;36.722;-4.462;2023-03-21T08:57:26;100945.41;;;31.40;17.61
60725;BME280;59881;36.722;-4.462;2023-03-21T08:59:52;101330.41;;;33.08;17.48
60725;BME280;59881;36.722;-4.462;2023-03-21T09:02:17;101179.53;;;32.30;18.15
60725;BME280;59881;36.722;-4.462;2023-03-21T09:04:43;101275.03;;;31.75;19.02
60725;BME280;59881;36.722;-4.462;2023-03-21T09:07:10;101242.75;;;32.74;18.39
60725;BME280;59881;36.722;-4.462;2023-03-21T09:09:37;101233.75;;;33.33;17.88
60725;BME280;59881;36.722;-4.462;2023-03-21T09:12:03;101153.88;;;31.78;18.23
60725;BME280;59881;36.722;-4.462;2023-03-21T09:14:28;100871.06;;;30.55;18.29
60725;BME280;59881;36.722;-4.462;2023-03-21T09:16:54;101215.78;;;34.35;16.70
60725;BME280;59881;36.722;-4.462;2023-03-21T09:19:20;101173.25;;;35.39;15.55
60725;BME280;59881;36.722;-4.462;2023-03-21T09:21:46;101088.81;;;35.90;14.99
60725;BME280;59881;36.722;-4.462;2023-03-21T09:24:12;101170.44;;;36.47;14.71
60725;BME280;59881;36.722;-4.462;2023-03-21T09:26:38;101099.84;;;37.59;13.40
60725;BME280;59881;36.722;-4.462;2023-03-21T09:29:03;101198.09;;;37.26;13.96
60725;BME280;59881;36.722;-4.462;2023-03-21T09:31:30;101224.97;;;38.89;12.86
60725;BME280;59881;36.722;-4.462;2023-03-21T09:33:56;101227.41;;;39.17;12.99
60725;BME280;59881;36.722;-4.462;2023-03-21T09:36:23;101232.66;;;36.69;14.55
60725;BME280;59881;36.722;-4.462;2023-03-21T09:38:52;101234.34;;;36.43;14.56
60725;BME280;59881;36.722;-4.462;2023-03-21T09:41:46;101228.84;;;38.83;13.51
60725;BME280;59881;36.722;-4.462;2023-03-21T09:44:29;101227.53;;;40.06;12.29
60725;BME280;59881;36.722;-4.462;2023-03-21T09:50:06;101225.03;;;41.45;11.37
60725;BME280;59881;36.722;-4.462;2023-03-21T09:55:16;101221.69;;;42.05;11.26
60725;BME280;59881;36.722;-4.462;2023-03-21T09:57:47;101202.47;;;42.28;11.33
60725;BME280;59881;36.722;-4.462;2023-03-21T10:00:25;101177.53;;;41.95;10.70
60725;BME280;59881;36.722;-4.462;2023-03-21T10:02:56;101215.84;;;40.48;12.19
60725;BME280;59881;36.722;-4.462;2023-03-21T10:05:30;101217.03;;;39.58;13.43
60725;BME280;59881;36.722;-4.462;2023-03-21T10:08:29;101190.88;;;41.12;12.68
60725;BME280;59881;36.722;-4.462;2023-03-21T10:11:03;101137.06;;;43.88;11.12
60725;BME280;59881;36.722;-4.462;2023-03-21T10:13:34;101213.41;;;45.76;10.04
60725;BME280;59881;36.722;-4.462;2023-03-21T10:16:11;100917.19;;;44.66;10.13
60725;BME280;59881;36.722;-4.462;2023-03-21T10:18:40;101191.00;;;47.23;9.19
60725;BME280;59881;36.722;-4.462;2023-03-21T10:21:11;101205.56;;;47.29;9.13
60725;BME280;59881;36.722;-4.462;2023-03-21T10:23:40;101201.41;;;47.35;8.95
60725;BME280;59881;36.722;-4.462;2023-03-21T10:26:07;101210.25;;;47.16;9.35
60725;BME280;59881;36.722;-4.462;2023-03-21T10:28:38;101200.06;;;46.90;9.75
60725;BME280;59881;36.722;-4.462;2023-03-21T10:31:07;101205.47;;;47.16;9.21
60725;BME280;59881;36.722;-4.462;2023-03-21T10:33:36;101197.16;;;46.78;9.75
60725;BME280;59881;36.722;-4.462;2023-03-21T10:36:14;101193.19;;;47.59;9.84
60725;BME280;59881;36.722;-4.462;2023-03-21T10:38:51;101198.38;;;47.28;10.05
60725;BME280;59881;36.722;-4.462;2023-03-21T10:41:17;101197.44;;;46.47;10.94
60725;BME280;59881;36.722;-4.462;2023-03-21T10:43:45;101187.84;;;46.18;11.06
60725;BME280;59881;36.722;-4.462;2023-03-21T10:46:17;101184.25;;;45.21;11.56
60725;BME280;59881;36.722;-4.462;2023-03-21T10:48:50;101185.63;;;41.91;13.38
60725;BME280;59881;36.722;-4.462;2023-03-21T10:51:35;101125.22;;;40.55;14.63
60725;BME280;59881;36.722;-4.462;2023-03-21T10:54:07;101141.75;;;40.85;14.69
60725;BME280;59881;36.722;-4.462;2023-03-21T10:56:37;101197.47;;;37.87;17.22
60725;BME280;59881;36.722;-4.462;2023-03-21T10:59:05;101185.13;;;32.05;22.91
60725;BME280;59881;36.722;-4.462;2023-03-21T11:01:39;101179.22;;;27.94;27.93
60725;BME280;59881;36.722;-4.462;2023-03-21T11:04:08;101198.03;;;25.47;32.18
60725;BME280;59881;36.722;-4.462;2023-03-21T11:06:38;100928.16;;;22.40;35.61
60725;BME280;59881;36.722;-4.462;2023-03-21T11:09:11;101230.44;;;23.23;37.00
60725;BME280;59881;36.722;-4.462;2023-03-21T11:11:42;101231.31;;;22.74;37.97
60725;BME280;59881;36.722;-4.462;2023-03-21T11:14:43;101216.03;;;22.25;39.73
60725;BME280;59881;36.722;-4.462;2023-03-21T11:19:47;101234.19;;;21.89;40.80
60725;BME280;59881;36.722;-4.462;2023-03-21T11:22:13;100719.13;;;18.37;41.39
60725;BME280;59881;36.722;-4.462;2023-03-21T11:24:41;101030.22;;;20.20;42.61
60725;BME280;59881;36.722;-4.462;2023-03-21T11:27:08;101210.94;;;21.29;42.97
60725;BME280;59881;36.722;-4.462;2023-03-21T11:29:36;101177.41;;;20.91;43.96
60725;BME280;59881;36.722;-4.462;2023-03-21T11:35:15;100760.72;;;18.30;44.22
60725;BME280;59881;36.722;-4.462;2023-03-21T11:37:45;100943.00;;;19.39;44.70
60725;BME280;59881;36.722;-4.462;2023-03-21T11:42:54;101206.28;;;20.43;46.38
60725;BME280;59881;36.722;-4.462;2023-03-21T11:45:23;101086.06;;;19.52;47.22
60725;BME280;59881;36.722;-4.462;2023-03-21T11:47:49;101108.13;;;19.54;48.08
60725;BME280;59881;36.722;-4.462;2023-03-21T11:50:34;100839.81;;;17.74;48.45
60725;BME280;59881;36.722;-4.462;2023-03-21T12:05:17;101195.88;;;19.31;49.56
60725;BME280;59881;36.722;-4.462;2023-03-21T12:08:00;101196.31;;;19.16;50.54
60725;BME280;59881;36.722;-4.462;2023-03-21T12:27:10;101189.81;;;18.72;51.84
60725;BME280;59881;36.722;-4.462;2023-03-21T12:30:12;101218.03;;;18.55;51.59
60725;BME280;59881;36.722;-4.462;2023-03-21T12:35:58;101170.72;;;18.47;53.61
60725;BME280;59881;36.722;-4.462;2023-03-21T12:41:22;101158.69;;;18.33;53.45
60725;BME280;59881;36.722;-4.462;2023-03-21T12:43:57;101096.50;;;17.94;53.51
60725;BME280;59881;36.722;-4.462;2023-03-21T12:52:00;101133.66;;;17.95;53.58
60725;BME280;59881;36.722;-4.462;2023-03-21T12:54:31;100780.22;;;15.38;53.88
60725;BME280;59881;36.722;-4.462;2023-03-21T12:57:05;101128.75;;;17.91;54.41
60725;BME280;59881;36.722;-4.462;2023-03-21T12:59:37;101116.13;;;17.93;54.30
60725;BME280;59881;36.722;-4.462;2023-03-21T13:02:33;101078.22;;;17.70;53.88
60725;BME280;59881;36.722;-4.462;2023-03-21T13:07:29;100307.56;;;13.08;54.52
60725;BME280;59881;36.722;-4.462;2023-03-21T13:09:59;100544.69;;;14.59;54.21
60725;BME280;59881;36.722;-4.462;2023-03-21T13:12:42;101087.81;;;17.92;54.28
60725;BME280;59881;36.722;-4.462;2023-03-21T13:17:50;101101.97;;;17.92;54.44
60725;BME280;59881;36.722;-4.462;2023-03-21T13:20:50;101088.94;;;17.99;54.38
60725;BME280;59881;36.722;-4.462;2023-03-21T13:23:16;101093.97;;;18.02;54.77
60725;BME280;59881;36.722;-4.462;2023-03-21T13:25:48;101088.63;;;18.02;55.37
60725;BME280;59881;36.722;-4.462;2023-03-21T13:28:34;101124.72;;;17.87;55.02
60725;BME280;59881;36.722;-4.462;2023-03-21T13:31:23;100501.66;;;14.04;55.51
60725;BME280;59881;36.722;-4.462;2023-03-21T13:33:51;100880.63;;;16.67;55.60
60725;BME280;59881;36.722;-4.462;2023-03-21T13:36:25;100802.19;;;15.92;55.29
60725;BME280;59881;36.722;-4.462;2023-03-21T13:38:57;101151.84;;;17.71;55.80
60725;BME280;59881;36.722;-4.462;2023-03-21T13:41:33;100899.66;;;16.22;56.83
60725;BME280;59881;36.722;-4.462;2023-03-21T14:02:16;101064.50;;;17.84;56.90
60725;BME280;59881;36.722;-4.462;2023-03-21T14:04:45;100734.47;;;15.77;56.64
60725;BME280;59881;36.722;-4.462;2023-03-21T14:07:21;101072.50;;;18.04;56.77
60725;BME280;59881;36.722;-4.462;2023-03-21T14:09:54;100783.81;;;16.29;55.99
60725;BME280;59881;36.722;-4.462;2023-03-21T14:12:28;101045.13;;;17.72;56.07
60725;BME280;59881;36.722;-4.462;2023-03-21T14:17:32;100713.91;;;15.17;55.69
60725;BME280;59881;36.722;-4.462;2023-03-21T14:20:07;100973.19;;;17.14;57.50
60725;BME280;59881;36.722;-4.462;2023-03-21T14:22:38;101057.75;;;17.61;57.46
60725;BME280;59881;36.722;-4.462;2023-03-21T14:25:13;100840.88;;;15.43;57.16
60725;BME280;59881;36.722;-4.462;2023-03-21T14:27:53;101047.19;;;17.40;56.91
60725;BME280;59881;36.722;-4.462;2023-03-21T14:30:27;101068.25;;;17.43;55.93
60725;BME280;59881;36.722;-4.462;2023-03-21T14:32:57;101051.94;;;17.26;54.83
60725;BME280;59881;36.722;-4.462;2023-03-21T14:35:28;101067.91;;;17.16;56.17
60725;BME280;59881;36.722;-4.462;2023-03-21T14:38:04;101057.66;;;17.22;55.45
60725;BME280;59881;36.722;-4.462;2023-03-21T14:40:31;100839.00;;;15.34;56.40
60725;BME280;59881;36.722;-4.462;2023-03-21T14:43:04;100957.06;;;16.65;55.01
60725;BME280;59881;36.722;-4.462;2023-03-21T14:45:31;100495.53;;;13.39;56.05